createdAt,value
2018-06-23T00:00:18.991Z,427.07
2018-06-23T00:02:46.196Z,431.63
2018-06-23T00:05:13.594Z,429.57
2018-06-23T00:07:40.799Z,435.83
2018-06-23T00:10:08.005Z,433.37
2018-06-23T00:12:35.217Z,433.17
2018-06-23T00:15:02.452Z,428.20
2018-06-23T00:17:29.654Z,425.43
2018-06-23T00:19:56.861Z,438.20
2018-06-23T00:22:24.078Z,429.80
2018-06-23T00:24:51.261Z,429.50
2018-06-23T00:27:18.443Z,426.97
2018-06-23T00:29:45.638Z,432.03
2018-06-23T00:32:12.848Z,425.70
2018-06-23T00:34:40.031Z,430.60
2018-06-23T00:37:07.235Z,428.07
2018-06-23T00:39:34.418Z,429.27
2018-06-23T00:42:01.609Z,424.93
2018-06-23T00:44:28.792Z,426.83
2018-06-23T00:46:56.006Z,424.07
2018-06-23T00:49:23.185Z,427.90
2018-06-23T00:51:50.398Z,423.47
2018-06-23T00:54:17.598Z,427.13
2018-06-23T00:56:44.814Z,427.47
2018-06-23T00:59:23.621Z,423.53
2018-06-23T01:01:50.840Z,428.23
2018-06-23T01:04:18.046Z,426.90
2018-06-23T01:06:45.257Z,424.33
2018-06-23T01:09:12.445Z,429.40
2018-06-23T01:11:39.642Z,430.20
2018-06-23T01:14:06.822Z,424.93
2018-06-23T01:16:34.045Z,426.33
2018-06-23T01:19:01.218Z,426.10
2018-06-23T01:21:28.410Z,425.43
2018-06-23T01:23:55.652Z,425.67
2018-06-23T01:26:22.837Z,426.10
2018-06-23T01:28:50.029Z,421.77
2018-06-23T01:31:17.225Z,425.47
2018-06-23T01:33:44.583Z,421.67
2018-06-23T01:36:11.773Z,424.57
2018-06-23T01:38:38.977Z,420.87
2018-06-23T01:41:06.177Z,422.03
2018-06-23T01:43:33.392Z,439.97
2018-06-23T01:46:00.593Z,447.27
2018-06-23T01:48:27.799Z,435.93
2018-06-23T01:50:54.980Z,433.70
2018-06-23T01:53:22.194Z,420.23
2018-06-23T01:55:49.431Z,424.03
2018-06-23T01:58:16.629Z,418.97
2018-06-23T02:00:43.824Z,426.47
2018-06-23T02:03:11.012Z,424.03
2018-06-23T02:05:38.202Z,420.50
2018-06-23T02:08:05.778Z,423.17
2018-06-23T02:10:32.972Z,423.90
2018-06-23T02:13:00.170Z,426.73
2018-06-23T02:16:37.160Z,421.77
2018-06-23T02:19:10.090Z,418.17
2018-06-23T02:22:46.879Z,417.87
2018-06-23T02:25:19.736Z,421.57
2018-06-23T02:27:52.658Z,418.67
2018-06-23T02:30:25.699Z,419.77
2018-06-23T02:32:53.430Z,420.07
2018-06-23T02:35:20.893Z,422.97
2018-06-23T02:37:48.099Z,416.27
2018-06-23T02:40:15.317Z,417.77
2018-06-23T02:42:42.525Z,433.23
2018-06-23T02:45:09.736Z,416.30
2018-06-23T02:47:36.937Z,421.17
2018-06-23T02:50:04.282Z,420.37
2018-06-23T02:52:31.734Z,420.47
2018-06-23T02:54:59.110Z,412.67
2018-06-23T02:57:26.333Z,423.97
2018-06-23T02:59:53.549Z,418.17
2018-06-23T03:02:20.765Z,416.00
2018-06-23T03:04:47.972Z,415.77
2018-06-23T03:07:15.529Z,414.67
2018-06-23T03:09:42.762Z,416.07
2018-06-23T03:12:10.017Z,418.07
2018-06-23T03:14:37.217Z,418.63
2018-06-23T03:17:09.282Z,410.00
2018-06-23T03:19:36.642Z,413.80
2018-06-23T03:22:03.867Z,413.20
2018-06-23T03:24:31.070Z,414.00
2018-06-23T03:26:58.296Z,417.77
2018-06-23T03:29:25.476Z,414.47
2018-06-23T03:31:52.709Z,413.17
2018-06-23T03:34:19.894Z,414.80
2018-06-23T03:36:47.075Z,411.67
2018-06-23T03:39:14.269Z,416.33
2018-06-23T03:41:41.465Z,411.30
2018-06-23T03:44:08.704Z,413.33
2018-06-23T03:46:35.877Z,414.00
2018-06-23T03:49:03.061Z,413.97
2018-06-23T03:51:30.263Z,419.80
2018-06-23T03:53:57.486Z,415.23
2018-06-23T03:56:25.023Z,413.57
2018-06-23T03:58:52.380Z,417.80
2018-06-23T04:01:19.582Z,410.63
2018-06-23T04:03:46.768Z,414.27
2018-06-23T04:06:13.980Z,418.13
2018-06-23T04:08:41.165Z,413.97
2018-06-23T04:11:08.384Z,421.27
2018-06-23T04:13:35.576Z,423.17
2018-06-23T04:16:02.809Z,420.03
2018-06-23T04:18:30.002Z,420.37
2018-06-23T04:20:57.193Z,420.90
2018-06-23T04:23:24.365Z,421.70
2018-06-23T04:25:51.562Z,424.47
2018-06-23T04:28:18.748Z,417.87
2018-06-23T04:30:45.947Z,422.53
2018-06-23T04:33:13.184Z,420.67
2018-06-23T04:35:40.385Z,418.37
2018-06-23T04:38:07.589Z,424.37
2018-06-23T04:40:34.793Z,421.17
2018-06-23T04:43:01.969Z,421.67
2018-06-23T04:45:29.157Z,421.20
2018-06-23T04:47:56.349Z,424.17
2018-06-23T04:50:23.532Z,421.53
2018-06-23T04:52:50.731Z,423.17
2018-06-23T04:55:17.908Z,432.17
2018-06-23T04:57:45.117Z,431.93
2018-06-23T05:00:12.334Z,425.67
2018-06-23T05:02:39.521Z,438.87
2018-06-23T05:05:06.737Z,429.00
2018-06-23T05:07:33.957Z,434.60
2018-06-23T05:10:01.145Z,440.60
2018-06-23T05:12:28.380Z,439.87
2018-06-23T05:14:55.554Z,439.10
2018-06-23T05:17:22.754Z,435.17
2018-06-23T05:19:50.010Z,441.33
2018-06-23T05:22:17.217Z,444.00
2018-06-23T05:24:44.414Z,441.20
2018-06-23T05:27:11.626Z,444.80
2018-06-23T05:29:38.817Z,446.27
2018-06-23T05:32:06.025Z,443.87
2018-06-23T05:34:33.265Z,446.30
2018-06-23T05:37:00.477Z,451.80
2018-06-23T05:39:27.655Z,448.37
2018-06-23T05:41:54.860Z,447.87
2018-06-23T05:44:22.060Z,448.93
2018-06-23T05:46:49.257Z,457.30
2018-06-23T05:49:16.433Z,451.57
2018-06-23T05:51:43.666Z,450.63
2018-06-23T05:54:10.888Z,451.27
2018-06-23T05:56:38.090Z,448.67
2018-06-23T05:59:05.353Z,447.90
2018-06-23T06:01:32.590Z,449.07
2018-06-23T06:03:59.796Z,450.77
2018-06-23T06:06:27.011Z,450.60
2018-06-23T06:08:54.209Z,450.83
2018-06-23T06:11:21.584Z,448.87
2018-06-23T06:13:48.775Z,449.83
2018-06-23T06:16:15.968Z,452.30
2018-06-23T06:18:43.178Z,449.20
2018-06-23T06:21:10.381Z,450.67
2018-06-23T06:23:37.585Z,447.07
2018-06-23T06:26:04.826Z,451.00
2018-06-23T06:28:32.058Z,447.07
2018-06-23T06:30:59.312Z,447.47
2018-06-23T06:33:26.489Z,455.47
2018-06-23T06:35:53.691Z,452.70
2018-06-23T06:38:20.892Z,452.77
2018-06-23T06:40:48.090Z,454.90
2018-06-23T06:43:15.303Z,456.27
2018-06-23T06:45:42.566Z,457.50
2018-06-23T06:48:09.790Z,455.97
2018-06-23T06:50:36.997Z,461.67
2018-06-23T06:53:04.229Z,472.93
2018-06-23T06:55:31.450Z,477.30
2018-06-23T06:57:58.642Z,494.60
2018-06-23T07:00:25.829Z,505.80
2018-06-23T07:02:53.088Z,519.73
2018-06-23T07:05:20.277Z,524.63
2018-06-23T07:07:47.477Z,528.17
2018-06-23T07:10:14.738Z,542.67
2018-06-23T07:12:41.929Z,547.60
2018-06-23T07:15:12.051Z,563.07
2018-06-23T07:17:39.329Z,578.37
2018-06-23T07:20:06.511Z,580.60
2018-06-23T07:22:33.694Z,596.93
2018-06-23T07:25:00.902Z,589.53
2018-06-23T07:27:28.110Z,584.93
2018-06-23T07:29:55.326Z,581.40
2018-06-23T07:32:22.524Z,569.33
2018-06-23T07:34:49.857Z,558.87
2018-06-23T07:37:16.961Z,550.37
2018-06-23T07:39:44.186Z,550.70
2018-06-23T07:42:11.372Z,544.27
2018-06-23T07:44:38.560Z,538.93
2018-06-23T07:47:05.756Z,536.87
2018-06-23T07:49:32.957Z,532.33
2018-06-23T07:52:00.149Z,534.60
2018-06-23T07:54:27.354Z,534.97
2018-06-23T07:56:54.552Z,536.03
2018-06-23T07:59:21.737Z,539.07
2018-06-23T08:01:48.931Z,545.70
2018-06-23T08:04:16.117Z,548.23
2018-06-23T08:06:43.307Z,555.90
2018-06-23T08:09:10.493Z,562.30
2018-06-23T08:11:37.818Z,568.07
2018-06-23T08:14:05.042Z,566.70
2018-06-23T08:16:32.253Z,572.10
2018-06-23T08:18:59.556Z,562.97
2018-06-23T08:21:26.753Z,557.97
2018-06-23T08:23:53.940Z,552.70
2018-06-23T08:26:21.729Z,547.73
2018-06-23T08:28:48.865Z,547.33
2018-06-23T08:31:16.115Z,541.43
2018-06-23T08:33:43.478Z,544.30
2018-06-23T08:36:10.669Z,552.40
2018-06-23T08:38:37.852Z,561.07
2018-06-23T08:41:05.066Z,561.93
2018-06-23T08:43:32.291Z,549.30
2018-06-23T08:45:59.489Z,543.67
2018-06-23T08:48:26.682Z,545.30
2018-06-23T08:50:53.891Z,547.00
2018-06-23T08:53:21.077Z,542.87
2018-06-23T08:55:48.290Z,538.97
2018-06-23T08:58:15.497Z,537.73
2018-06-23T09:00:42.680Z,540.07
2018-06-23T09:03:09.873Z,541.47
2018-06-23T09:05:37.061Z,551.63
2018-06-23T09:08:04.305Z,556.93
2018-06-23T09:10:31.505Z,550.07
2018-06-23T09:12:58.737Z,541.03
2018-06-23T09:15:25.940Z,536.07
2018-06-23T09:17:53.153Z,541.90
2018-06-23T09:20:20.336Z,552.73
2018-06-23T09:22:47.541Z,547.70
2018-06-23T09:25:14.791Z,545.43
2018-06-23T09:27:41.950Z,541.73
2018-06-23T09:30:09.160Z,552.43
2018-06-23T09:32:36.350Z,552.00
2018-06-23T09:35:03.580Z,549.97
2018-06-23T09:37:30.794Z,545.10
2018-06-23T09:39:57.988Z,545.83
2018-06-23T09:42:25.181Z,535.73
2018-06-23T09:44:52.361Z,532.60
2018-06-23T09:47:19.896Z,539.93
2018-06-23T09:49:47.091Z,536.93
2018-06-23T09:52:14.349Z,534.87
2018-06-23T09:54:41.539Z,529.80
2018-06-23T09:57:08.741Z,529.10
2018-06-23T09:59:36.529Z,523.20
2018-06-23T10:02:03.763Z,527.57
2018-06-23T10:04:30.985Z,515.43
2018-06-23T10:06:58.184Z,523.87
2018-06-23T10:09:25.365Z,518.27
2018-06-23T10:11:52.573Z,521.63
2018-06-23T10:14:19.782Z,527.30
2018-06-23T10:16:46.977Z,529.87
2018-06-23T10:19:14.167Z,537.33
2018-06-23T10:21:41.385Z,534.87
2018-06-23T10:24:08.576Z,531.63
2018-06-23T10:26:35.769Z,527.07
2018-06-23T10:29:02.972Z,532.20
2018-06-23T10:31:30.156Z,523.83
2018-06-23T10:33:57.365Z,524.47
2018-06-23T10:36:24.542Z,522.63
2018-06-23T10:38:51.730Z,531.27
2018-06-23T10:41:18.917Z,530.87
2018-06-23T10:43:46.141Z,532.90
2018-06-23T10:46:13.358Z,536.30
2018-06-23T10:48:40.561Z,546.17
2018-06-23T10:51:07.761Z,542.90
2018-06-23T10:53:34.949Z,546.33
2018-06-23T10:56:02.145Z,546.83
2018-06-23T10:58:29.315Z,545.07
2018-06-23T11:00:56.516Z,548.27
2018-06-23T11:03:23.717Z,552.63
2018-06-23T11:05:50.929Z,552.90
2018-06-23T11:08:18.101Z,562.47
2018-06-23T11:10:45.331Z,572.00
2018-06-23T11:13:12.636Z,593.00
2018-06-23T11:15:40.085Z,560.67
2018-06-23T11:18:07.288Z,564.23
2018-06-23T11:20:34.501Z,558.13
2018-06-23T11:23:01.684Z,561.00
2018-06-23T11:25:28.878Z,556.27
2018-06-23T11:27:56.049Z,563.43
2018-06-23T11:30:23.245Z,564.87
2018-06-23T11:32:50.428Z,578.73
2018-06-23T11:35:17.616Z,570.63
2018-06-23T11:37:44.802Z,569.73
2018-06-23T11:40:12.068Z,588.57
2018-06-23T11:42:39.265Z,590.40
2018-06-23T11:45:06.507Z,615.27
2018-06-23T11:47:33.693Z,626.30
2018-06-23T11:50:01.172Z,631.80
2018-06-23T11:52:28.507Z,651.60
2018-06-23T11:54:55.581Z,656.27
2018-06-23T11:57:22.780Z,688.97
2018-06-23T11:59:49.966Z,695.03
2018-06-23T12:02:17.161Z,724.17
2018-06-23T12:04:44.348Z,679.63
2018-06-23T12:07:11.523Z,690.07
2018-06-23T12:09:38.723Z,679.47
2018-06-23T12:12:05.965Z,679.63
2018-06-23T12:14:33.162Z,710.53
2018-06-23T12:17:00.376Z,690.70
2018-06-23T12:19:27.565Z,712.07
2018-06-23T12:21:54.720Z,723.10
2018-06-23T12:24:21.921Z,761.67
2018-06-23T12:26:49.137Z,783.30
2018-06-23T12:29:16.321Z,742.07
2018-06-23T12:31:43.509Z,759.20
2018-06-23T12:34:10.689Z,783.43
2018-06-23T12:36:37.913Z,750.70
2018-06-23T12:39:07.474Z,734.50
2018-06-23T12:41:34.720Z,721.03
2018-06-23T12:44:02.072Z,738.07
2018-06-23T12:46:29.272Z,723.30
2018-06-23T12:48:56.463Z,720.03
2018-06-23T12:51:23.657Z,740.10
2018-06-23T12:53:50.854Z,736.87
2018-06-23T12:56:18.062Z,736.63
2018-06-23T12:58:45.265Z,760.07
2018-06-23T13:01:12.458Z,797.77
2018-06-23T13:03:39.641Z,812.13
2018-06-23T13:06:06.846Z,775.33
2018-06-23T13:08:34.038Z,743.40
2018-06-23T13:11:01.238Z,753.87
2018-06-23T13:13:28.429Z,699.20
2018-06-23T13:15:55.658Z,685.53
2018-06-23T13:18:22.864Z,624.53
2018-06-23T13:20:50.042Z,634.03
2018-06-23T13:23:17.237Z,684.70
2018-06-23T13:25:44.421Z,685.23
2018-06-23T13:28:11.628Z,663.93
2018-06-23T13:30:38.820Z,654.60
2018-06-23T13:33:06.039Z,611.47
2018-06-23T13:35:33.340Z,592.77
2018-06-23T13:38:00.539Z,583.90
2018-06-23T13:40:27.800Z,581.40
2018-06-23T13:42:55.018Z,654.73
2018-06-23T13:45:22.204Z,636.13
2018-06-23T13:47:49.410Z,684.87
2018-06-23T13:50:16.602Z,685.83
2018-06-23T13:52:43.790Z,678.33
2018-06-23T13:55:10.998Z,699.07
2018-06-23T13:57:38.193Z,727.13
2018-06-23T14:00:06.580Z,701.70
2018-06-23T14:02:33.785Z,715.20
2018-06-23T14:05:00.982Z,718.03
2018-06-23T14:07:28.156Z,706.57
2018-06-23T14:09:55.346Z,729.07
2018-06-23T14:12:22.562Z,668.03
2018-06-23T14:14:49.780Z,670.63
2018-06-23T14:17:16.952Z,646.10
2018-06-23T14:19:44.138Z,695.17
2018-06-23T14:22:11.323Z,685.60
2018-06-23T14:24:38.589Z,700.47
2018-06-23T14:27:05.801Z,708.13
2018-06-23T14:29:33.041Z,718.57
2018-06-23T14:32:00.496Z,730.90
2018-06-23T14:34:27.466Z,734.40
2018-06-23T14:36:54.661Z,714.43
2018-06-23T14:39:21.841Z,705.17
2018-06-23T14:41:49.025Z,708.60
2018-06-23T14:44:16.370Z,680.50
2018-06-23T14:46:43.580Z,683.33
2018-06-23T14:49:10.757Z,702.60
2018-06-23T14:51:37.970Z,674.77
2018-06-23T14:54:05.323Z,648.27
2018-06-23T14:56:32.505Z,628.97
2018-06-23T14:58:59.705Z,642.70
2018-06-23T15:01:26.881Z,666.63
2018-06-23T15:03:54.053Z,653.03
2018-06-23T15:06:21.229Z,643.87
2018-06-23T15:08:59.938Z,605.63
2018-06-23T15:11:38.624Z,1024.23
2018-06-23T15:14:05.815Z,806.23
2018-06-23T15:16:33.052Z,589.30
2018-06-23T15:19:00.237Z,595.63
2018-06-23T15:21:27.440Z,629.00
2018-06-23T15:23:54.631Z,621.17
2018-06-23T15:26:21.820Z,603.50
2018-06-23T15:28:49.005Z,627.63
2018-06-23T15:31:16.195Z,606.33
2018-06-23T15:33:43.425Z,630.10
2018-06-23T15:36:10.836Z,639.97
2018-06-23T15:38:38.001Z,643.77
2018-06-23T15:41:05.707Z,660.17
2018-06-23T15:43:33.045Z,628.93
2018-06-23T15:46:00.279Z,654.03
2018-06-23T15:48:27.459Z,644.03
2018-06-23T15:50:54.657Z,656.03
2018-06-23T15:53:21.832Z,613.60
2018-06-23T15:55:49.104Z,627.63
2018-06-23T15:58:16.310Z,623.03
2018-06-23T16:00:43.520Z,596.97
2018-06-23T16:03:10.712Z,579.97
2018-06-23T16:05:37.898Z,575.60
2018-06-23T16:08:05.118Z,575.73
2018-06-23T16:10:32.318Z,578.20
2018-06-23T16:12:59.499Z,577.70
2018-06-23T16:15:26.743Z,571.27
2018-06-23T16:17:53.900Z,573.97
2018-06-23T16:20:21.074Z,573.33
2018-06-23T16:22:48.285Z,569.50
2018-06-23T16:25:15.936Z,567.10
2018-06-23T16:27:43.177Z,560.33
2018-06-23T16:30:10.364Z,562.57
2018-06-23T16:32:37.614Z,558.90
2018-06-23T16:35:05.126Z,557.93
2018-06-23T16:37:32.200Z,557.80
2018-06-23T16:39:59.399Z,559.40
2018-06-23T16:42:26.585Z,550.83
2018-06-23T16:44:53.782Z,556.67
2018-06-23T16:47:20.969Z,557.00
2018-06-23T16:49:48.147Z,550.47
2018-06-23T16:52:15.334Z,553.60
2018-06-23T16:54:42.513Z,554.10
2018-06-23T16:57:09.714Z,552.17
2018-06-23T16:59:36.897Z,540.87
2018-06-23T17:02:04.110Z,546.03
2018-06-23T17:04:31.306Z,545.37
2018-06-23T17:06:58.506Z,535.33
2018-06-23T17:09:25.856Z,531.37
2018-06-23T17:11:53.084Z,531.03
2018-06-23T17:14:20.265Z,524.57
2018-06-23T17:16:47.501Z,532.60
2018-06-23T17:19:14.686Z,523.10
2018-06-23T17:21:42.797Z,527.13
2018-06-23T17:24:09.981Z,524.20
2018-06-23T17:26:37.163Z,527.63
2018-06-23T17:29:04.485Z,526.40
2018-06-23T17:31:31.670Z,521.27
2018-06-23T17:33:58.850Z,517.20
2018-06-23T17:36:26.050Z,517.50
2018-06-23T17:38:53.226Z,519.63
2018-06-23T17:41:20.420Z,516.20
2018-06-23T17:43:47.620Z,520.30
2018-06-23T17:46:14.826Z,518.27
2018-06-23T17:48:42.005Z,513.33
2018-06-23T17:51:09.183Z,513.87
2018-06-23T17:53:36.364Z,524.00
2018-06-23T17:56:03.825Z,521.73
2018-06-23T17:58:31.024Z,516.23
2018-06-23T18:00:58.258Z,516.30
2018-06-23T18:03:25.444Z,521.77
2018-06-23T18:05:52.629Z,514.63
2018-06-23T18:08:19.849Z,513.50
2018-06-23T18:10:47.086Z,516.57
2018-06-23T18:13:14.273Z,515.63
2018-06-23T18:15:41.480Z,519.23
2018-06-23T18:18:08.628Z,514.57
2018-06-23T18:20:35.819Z,518.03
2018-06-23T18:23:03.030Z,509.43
2018-06-23T18:25:30.231Z,513.90
2018-06-23T18:27:57.434Z,509.57
2018-06-23T18:30:24.629Z,509.77
2018-06-23T18:32:51.822Z,504.97
2018-06-23T18:35:19.003Z,509.37
2018-06-23T18:37:46.216Z,506.13
2018-06-23T18:40:13.396Z,502.37
2018-06-23T18:42:40.586Z,503.17
2018-06-23T18:45:07.781Z,505.37
2018-06-23T18:47:35.156Z,505.67
2018-06-23T18:50:02.362Z,513.10
2018-06-23T18:52:29.673Z,503.20
2018-06-23T18:54:56.925Z,499.47
2018-06-23T18:57:24.108Z,503.50
2018-06-23T18:59:51.293Z,498.07
2018-06-23T19:02:18.512Z,499.50
2018-06-23T19:04:45.718Z,498.20
2018-06-23T19:07:12.897Z,498.57
2018-06-23T19:09:40.085Z,493.47
2018-06-23T19:12:07.273Z,495.07
2018-06-23T19:14:34.456Z,493.83
2018-06-23T19:17:01.667Z,496.27
2018-06-23T19:19:28.880Z,493.07
2018-06-23T19:21:56.065Z,490.60
2018-06-23T19:24:23.269Z,501.13
2018-06-23T19:26:50.445Z,492.17
2018-06-23T19:29:17.632Z,493.93
2018-06-23T19:31:44.828Z,490.07
2018-06-23T19:34:12.017Z,490.70
2018-06-23T19:36:39.243Z,489.40
2018-06-23T19:39:08.337Z,491.97
2018-06-23T19:41:35.534Z,493.50
2018-06-23T19:44:02.827Z,492.37
2018-06-23T19:46:30.021Z,489.57
2018-06-23T19:48:57.205Z,487.63
2018-06-23T19:51:24.389Z,492.87
2018-06-23T19:53:51.641Z,487.23
2018-06-23T19:56:18.771Z,487.27
2018-06-23T19:58:45.976Z,485.03
2018-06-23T20:01:13.149Z,489.00
2018-06-23T20:03:40.332Z,487.30
2018-06-23T20:06:07.728Z,486.77
2018-06-23T20:08:34.930Z,485.20
2018-06-23T20:11:02.138Z,484.97
2018-06-23T20:13:29.328Z,484.83
2018-06-23T20:15:56.796Z,481.83
2018-06-23T20:18:23.998Z,483.17
2018-06-23T20:20:51.215Z,487.30
2018-06-23T20:23:18.425Z,479.23
2018-06-23T20:25:46.457Z,479.40
2018-06-23T20:28:13.793Z,481.20
2018-06-23T20:30:41.046Z,479.70
2018-06-23T20:33:08.348Z,481.10
2018-06-23T20:35:35.534Z,482.90
2018-06-23T20:38:02.753Z,479.33
2018-06-23T20:40:29.946Z,486.10
2018-06-23T20:42:57.133Z,486.97
2018-06-23T20:45:24.326Z,478.00
2018-06-23T20:47:51.497Z,477.77
2018-06-23T20:50:18.685Z,477.57
2018-06-23T20:52:45.869Z,477.47
2018-06-23T20:55:13.072Z,478.47
2018-06-23T20:57:40.289Z,476.60
2018-06-23T21:00:07.517Z,402.17
2018-06-23T21:02:34.735Z,473.87
2018-06-23T21:05:01.938Z,474.07
2018-06-23T21:07:29.226Z,473.37
2018-06-23T21:09:56.349Z,478.50
2018-06-23T21:12:23.538Z,477.80
2018-06-23T21:14:50.725Z,473.37
2018-06-23T21:17:17.926Z,469.97
2018-06-23T21:19:45.193Z,473.00
2018-06-23T21:22:12.402Z,470.67
2018-06-23T21:24:39.605Z,473.67
2018-06-23T21:27:06.862Z,472.67
2018-06-23T21:29:34.045Z,472.27
2018-06-23T21:32:01.250Z,472.53
2018-06-23T21:34:28.458Z,474.60
2018-06-23T21:36:55.641Z,484.57
2018-06-23T21:39:22.853Z,470.70
2018-06-23T21:41:50.037Z,476.10
2018-06-23T21:44:17.230Z,471.37
2018-06-23T21:46:44.456Z,471.47
2018-06-23T21:49:11.624Z,476.60
2018-06-23T21:51:38.814Z,469.40
2018-06-23T21:54:06.104Z,479.73
2018-06-23T21:56:33.305Z,475.93
2018-06-23T21:59:00.484Z,472.53
2018-06-23T22:01:27.798Z,474.83
2018-06-23T22:03:55.178Z,471.30
2018-06-23T22:06:22.368Z,471.67
2018-06-23T22:08:49.554Z,480.50
2018-06-23T22:11:16.796Z,472.20
2018-06-23T22:13:43.977Z,477.77
2018-06-23T22:16:11.174Z,473.90
2018-06-23T22:18:38.380Z,475.57
2018-06-23T22:21:05.745Z,484.23
2018-06-23T22:23:32.932Z,478.40
2018-06-23T22:26:00.179Z,470.40
2018-06-23T22:28:27.388Z,470.63
2018-06-23T22:30:54.568Z,473.37
2018-06-23T22:33:21.757Z,476.67
2018-06-23T22:35:48.957Z,475.67
2018-06-23T22:38:16.181Z,475.73
2018-06-23T22:40:43.481Z,471.43
2018-06-23T22:43:10.666Z,471.83
2018-06-23T22:45:37.878Z,471.70
2018-06-23T22:48:05.093Z,470.87
2018-06-23T22:50:32.284Z,472.90
2018-06-23T22:52:59.486Z,469.20
2018-06-23T22:55:26.676Z,472.87
2018-06-23T22:57:53.915Z,471.77
2018-06-23T23:00:21.098Z,469.57
2018-06-23T23:02:48.302Z,472.50
2018-06-23T23:05:15.497Z,472.77
2018-06-23T23:07:42.712Z,472.27
2018-06-23T23:10:10.531Z,473.30
2018-06-23T23:12:37.725Z,469.67
2018-06-23T23:15:05.348Z,479.53
2018-06-23T23:17:32.719Z,469.10
2018-06-23T23:19:59.920Z,469.37
2018-06-23T23:22:27.124Z,471.07
2018-06-23T23:24:54.310Z,469.90
2018-06-23T23:27:21.777Z,469.97
2018-06-23T23:29:48.961Z,475.67
2018-06-23T23:32:16.166Z,469.70
2018-06-23T23:34:43.344Z,473.37
2018-06-23T23:37:10.521Z,469.50
2018-06-23T23:39:37.729Z,467.07
2018-06-23T23:42:04.913Z,468.40
2018-06-23T23:44:32.121Z,468.10
2018-06-23T23:46:59.313Z,468.97
2018-06-23T23:49:26.496Z,469.07
2018-06-23T23:51:53.689Z,466.47
2018-06-23T23:54:20.892Z,465.60
2018-06-23T23:56:48.105Z,463.67
2018-06-23T23:59:15.313Z,469.13
